Time;durP1;ratioP1;P1;durP2;ratioP2;P2;SDS_P1;SDS_P2;PMS_P1;PMS_P2;Temp;Humidity;BMP_temperature;BMP_pressure;BME280_temperature;BME280_humidity;BME280_pressure;Samples;Min_cycle;Max_cycle;Signal;HPM_P1;HPM_P2
2023/04/16 00:00:06;;;;;;;6.77;2.50;;;;;;;11.75;59.48;64184.00;5071359;28;20196;-57
2023/04/16 00:02:32;;;;;;;3.87;2.27;;;;;;;11.75;59.52;64181.47;5071526;28;20197;-57
2023/04/16 00:04:57;;;;;;;3.83;1.97;;;;;;;11.81;59.87;64185.53;5071523;28;20200;-57
2023/04/16 00:07:23;;;;;;;4.07;2.37;;;;;;;11.72;59.34;64183.22;5071218;28;20192;-58
2023/04/16 00:09:49;;;;;;;4.23;2.43;;;;;;;11.71;59.01;64180.16;5071143;28;20239;-56
2023/04/16 00:12:15;;;;;;;4.37;2.27;;;;;;;11.79;58.85;64186.41;5070788;28;20268;-57
2023/04/16 00:14:42;;;;;;;4.53;2.33;;;;;;;11.86;58.38;64195.50;5071140;28;20317;-57
2023/04/16 00:17:08;;;;;;;2.77;1.83;;;;;;;11.75;58.52;64184.00;5071005;28;20177;-56
2023/04/16 00:19:34;;;;;;;3.03;1.67;;;;;;;11.80;58.62;64186.94;5071017;28;20287;-57
2023/04/16 00:22:00;;;;;;;3.53;2.40;;;;;;;11.75;58.48;64184.53;5071028;28;20613;-57
2023/04/16 00:24:25;;;;;;;2.93;2.07;;;;;;;11.65;58.26;64173.56;5071667;28;20721;-58
2023/04/16 00:26:50;;;;;;;2.37;1.90;;;;;;;11.62;58.20;64167.75;5070991;28;20639;-57
2023/04/16 00:29:16;;;;;;;4.80;2.03;;;;;;;11.54;58.78;64161.50;5070683;28;20217;-58
2023/04/16 00:31:41;;;;;;;4.23;2.20;;;;;;;11.63;59.25;64168.84;5071182;28;20181;-57
2023/04/16 00:34:06;;;;;;;4.17;2.10;;;;;;;11.59;58.40;64166.44;5071151;28;20213;-57
2023/04/16 00:36:32;;;;;;;2.33;1.80;;;;;;;11.56;58.34;64163.16;5070813;28;20185;-55
2023/04/16 00:38:57;;;;;;;3.77;1.80;;;;;;;11.54;57.98;64158.97;5070907;28;20212;-57
2023/04/16 00:41:23;;;;;;;3.10;1.40;;;;;;;11.46;57.99;64147.13;5070926;28;20184;-60
2023/04/16 00:43:49;;;;;;;2.70;1.40;;;;;;;11.42;58.08;64147.81;5071194;28;20212;-60
2023/04/16 00:46:17;;;;;;;3.20;1.27;;;;;;;11.42;57.57;64145.84;5070735;28;20188;-61
2023/04/16 00:48:43;;;;;;;1.87;1.37;;;;;;;11.30;58.12;64130.16;5070883;28;20654;-55
2023/04/16 00:51:10;;;;;;;3.87;1.57;;;;;;;11.31;59.03;64136.28;5070642;28;20268;-58
2023/04/16 00:53:36;;;;;;;1.80;1.60;;;;;;;11.36;58.33;64141.22;5070779;28;20205;-58
2023/04/16 00:56:04;;;;;;;4.60;1.60;;;;;;;11.29;59.13;64134.09;5070767;28;20651;-56
2023/04/16 00:58:30;;;;;;;3.10;1.53;;;;;;;11.31;58.42;64136.28;5070839;28;20273;-57
2023/04/16 01:00:56;;;;;;;2.87;1.70;;;;;;;11.30;58.15;64135.22;5070715;28;20185;-56
2023/04/16 01:03:22;;;;;;;3.30;1.30;;;;;;;11.25;58.45;64126.66;5070340;28;20219;-56
2023/04/16 01:05:48;;;;;;;5.40;1.73;;;;;;;11.26;58.67;64130.84;5070439;28;20224;-57
2023/04/16 01:08:18;;;;;;;5.20;1.70;;;;;;;11.17;58.90;64118.44;5070648;28;20623;-57
2023/04/16 01:10:44;;;;;;;3.13;1.50;;;;;;;11.10;58.87;64108.25;5070375;28;20188;-60
2023/04/16 01:13:10;;;;;;;2.87;1.60;;;;;;;11.05;58.92;64107.81;5070557;28;20527;-60
2023/04/16 01:15:36;;;;;;;2.83;1.60;;;;;;;10.78;59.81;64078.81;5070455;28;20199;-60
2023/04/16 01:18:02;;;;;;;2.13;1.60;;;;;;;10.81;60.41;64079.03;5070529;28;20274;-60
2023/04/16 01:20:28;;;;;;;3.97;1.90;;;;;;;10.61;59.83;64059.66;5070276;28;20193;-56
2023/04/16 01:22:54;;;;;;;4.17;2.07;;;;;;;10.62;59.88;64060.75;5070440;28;20285;-57
2023/04/16 01:25:19;;;;;;;2.07;1.50;;;;;;;10.67;59.79;64066.78;5072118;28;20259;-57
2023/04/16 01:27:48;;;;;;;2.13;1.23;;;;;;;10.57;60.41;64052.75;5082587;22;20199;-56
2023/04/16 01:30:14;;;;;;;3.57;1.67;;;;;;;10.63;60.18;64061.84;5072858;28;20208;-56
2023/04/16 01:32:39;;;;;;;2.40;1.43;;;;;;;10.61;60.30;64057.69;5073719;28;20251;-57
2023/04/16 01:35:05;;;;;;;1.73;1.47;;;;;;;10.67;59.85;64063.69;5073739;28;20246;-56
2023/04/16 01:37:30;;;;;;;3.00;1.67;;;;;;;10.74;59.75;64069.41;5073932;28;20224;-55
2023/04/16 01:39:56;;;;;;;3.47;1.60;;;;;;;10.80;59.84;64081.00;5073361;28;20208;-55
2023/04/16 01:42:21;;;;;;;2.40;1.67;;;;;;;10.86;59.58;64087.59;5073452;28;20185;-56
2023/04/16 01:44:47;;;;;;;3.57;1.70;;;;;;;10.83;59.57;64084.28;5055534;28;20217;-60
2023/04/16 01:47:13;;;;;;;3.00;1.40;;;;;;;10.74;59.80;64074.44;5072129;28;20279;-60
2023/04/16 01:49:38;;;;;;;3.13;1.20;;;;;;;10.86;60.16;64089.56;5073517;28;20307;-59
2023/04/16 01:52:04;;;;;;;1.30;1.20;;;;;;;10.83;60.43;64078.69;5073602;28;20180;-59
2023/04/16 01:54:29;;;;;;;2.43;1.40;;;;;;;10.86;60.94;64085.06;5073455;28;20230;-58
2023/04/16 01:56:55;;;;;;;2.53;1.40;;;;;;;10.82;61.18;64082.66;5073440;28;20295;-59
2023/04/16 01:59:21;;;;;;;5.07;1.70;;;;;;;10.79;61.25;64079.34;5073209;28;20215;-59
2023/04/16 02:01:46;;;;;;;1.40;1.30;;;;;;;10.77;61.99;64077.16;5073402;28;20287;-57
2023/04/16 02:04:12;;;;;;;3.30;2.10;;;;;;;10.69;63.04;64068.41;5073695;28;20205;-57
2023/04/16 02:06:38;;;;;;;3.10;2.00;;;;;;;10.65;61.35;64059.53;5038643;28;20591;-57
2023/04/16 02:09:03;;;;;;;2.07;1.50;;;;;;;10.58;61.38;64056.38;5073326;28;20319;-58
2023/04/16 02:11:29;;;;;;;2.20;1.40;;;;;;;10.56;60.92;64051.66;5073008;28;20280;-57
2023/04/16 02:13:54;;;;;;;4.10;1.70;;;;;;;10.51;61.10;64046.75;5073199;28;20291;-57
2023/04/16 02:16:19;;;;;;;3.67;2.10;;;;;;;10.40;61.75;64036.69;5073161;28;20193;-57
2023/04/16 02:18:45;;;;;;;4.83;1.50;;;;;;;10.38;62.44;64035.03;5073191;28;20300;-58
2023/04/16 02:21:10;;;;;;;3.27;1.60;;;;;;;10.32;62.39;64027.91;5073023;28;20347;-58
2023/04/16 02:23:36;;;;;;;4.07;2.00;;;;;;;10.23;63.06;64018.06;5073244;28;20212;-57
2023/04/16 02:26:02;;;;;;;1.90;1.30;;;;;;;10.26;63.78;64018.84;5073017;28;20180;-57
2023/04/16 02:28:27;;;;;;;3.93;1.63;;;;;;;10.26;65.22;64024.41;5054920;28;20224;-57
2023/04/16 02:30:53;;;;;;;3.63;2.10;;;;;;;10.38;64.54;64029.44;5055112;28;20272;-58
2023/04/16 02:33:19;;;;;;;3.90;1.80;;;;;;;10.33;65.00;64027.03;5054888;28;20590;-57
2023/04/16 02:35:44;;;;;;;4.13;2.20;;;;;;;10.40;64.80;64036.69;5072454;28;20669;-57
2023/04/16 02:38:10;;;;;;;3.53;1.80;;;;;;;10.46;64.96;64041.28;5072769;28;20213;-57
2023/04/16 02:40:35;;;;;;;6.13;1.90;;;;;;;10.47;63.89;64042.34;5072644;28;20695;-56
2023/04/16 02:43:01;;;;;;;5.53;2.40;;;;;;;10.45;64.42;64039.63;5072415;28;20216;-57
2023/04/16 02:45:26;;;;;;;2.23;1.63;;;;;;;10.42;64.11;64036.91;5072495;28;20185;-58
2023/04/16 02:47:51;;;;;;;5.50;2.00;;;;;;;10.31;64.56;64026.81;5072709;28;20251;-57
2023/04/16 02:50:17;;;;;;;4.30;2.00;;;;;;;10.44;63.42;64038.53;5072359;28;20212;-62
2023/04/16 02:52:43;;;;;;;3.53;1.90;;;;;;;10.44;64.63;64041.06;5072592;28;20234;-56
2023/04/16 02:55:09;;;;;;;2.43;1.60;;;;;;;10.48;63.18;64043.47;5072509;28;20593;-56
2023/04/16 02:57:35;;;;;;;1.97;1.60;;;;;;;10.35;63.89;64031.75;5072429;28;20200;-57
2023/04/16 03:00:01;;;;;;;2.80;1.77;;;;;;;10.35;64.10;64031.19;5072321;28;20219;-60
2023/04/16 03:02:26;;;;;;;3.13;1.47;;;;;;;10.39;64.09;64035.56;5072290;28;20555;-58
2023/04/16 03:04:54;;;;;;;2.40;1.70;;;;;;;10.45;63.51;64042.13;5072210;28;20200;-59
2023/04/16 03:07:20;;;;;;;2.90;1.90;;;;;;;10.30;63.97;64025.72;5072481;28;20208;-58
2023/04/16 03:09:45;;;;;;;2.27;1.67;;;;;;;10.30;64.32;64026.28;5072328;28;20317;-57
2023/04/16 03:12:11;;;;;;;3.23;1.83;;;;;;;10.20;64.84;64010.28;5072199;28;20585;-57
2023/04/16 03:14:36;;;;;;;3.13;1.77;;;;;;;10.28;64.45;64023.53;5072328;28;20205;-56
2023/04/16 03:17:02;;;;;;;3.63;1.50;;;;;;;10.29;65.16;64022.66;5071991;28;20666;-56
2023/04/16 03:19:27;;;;;;;4.13;2.00;;;;;;;10.24;66.39;64017.19;5079665;22;20224;-56
2023/04/16 03:21:53;;;;;;;2.37;1.67;;;;;;;10.32;66.33;64025.41;5072254;28;20629;-57
2023/04/16 03:24:18;;;;;;;3.63;1.67;;;;;;;10.41;66.23;64035.25;5072353;28;20209;-60
2023/04/16 03:26:44;;;;;;;1.60;1.17;;;;;;;10.30;65.78;64025.72;5072039;28;20681;-59
2023/04/16 03:29:09;;;;;;;2.50;1.63;;;;;;;10.34;64.80;64027.59;5072300;28;20313;-58
2023/04/16 03:31:35;;;;;;;2.33;1.50;;;;;;;10.43;65.23;64035.47;5071820;28;20635;-60
2023/04/16 03:34:00;;;;;;;9.63;1.90;;;;;;;10.39;65.17;64033.59;5072209;28;20232;-58
2023/04/16 03:36:28;;;;;;;2.50;1.50;;;;;;;10.38;64.98;64034.47;5072083;28;20279;-61
2023/04/16 03:38:54;;;;;;;3.10;1.87;;;;;;;10.61;62.42;64060.19;5054475;28;20593;-57
2023/04/16 03:41:19;;;;;;;2.90;1.60;;;;;;;10.49;62.41;64041.47;5071999;28;20221;-62
2023/04/16 03:43:45;;;;;;;2.60;2.00;;;;;;;10.54;62.05;64049.47;5071817;28;20212;-61
2023/04/16 03:46:10;;;;;;;2.53;1.80;;;;;;;10.56;63.24;64051.66;5071707;28;20185;-59
2023/04/16 03:48:36;;;;;;;2.50;1.60;;;;;;;10.46;64.58;64043.78;5070993;28;20292;-57
2023/04/16 03:51:01;;;;;;;3.33;1.43;;;;;;;10.66;63.21;64062.63;5071812;28;20255;-57
2023/04/16 03:53:27;;;;;;;2.27;1.73;;;;;;;10.74;63.19;64068.84;5071974;28;20649;-57
2023/04/16 03:55:52;;;;;;;4.40;1.70;;;;;;;10.68;63.42;64064.81;5071513;28;20247;-56
2023/04/16 03:58:18;;;;;;;3.23;1.73;;;;;;;10.73;63.91;64070.25;5071838;28;20297;-58
2023/04/16 04:00:44;;;;;;;3.23;2.03;;;;;;;10.71;62.96;64066.09;5071571;28;20549;-58
2023/04/16 04:03:10;;;;;;;4.83;1.70;;;;;;;10.63;62.28;64059.88;5071381;28;20706;-57
2023/04/16 04:05:36;;;;;;;3.57;1.63;;;;;;;10.52;63.12;64050.34;5070275;28;20214;-56
2023/04/16 04:08:09;;;;;;;3.17;1.50;;;;;;;10.50;62.73;64045.66;5071375;28;20630;-61
2023/04/16 04:10:35;;;;;;;5.10;1.47;;;;;;;10.20;63.84;64012.28;5071167;28;20702;-60
2023/04/16 04:13:05;;;;;;;3.37;1.60;;;;;;;10.18;64.18;64010.63;5071336;28;20224;-56
2023/04/16 04:15:31;;;;;;;6.67;2.03;;;;;;;10.11;64.74;64005.47;5053165;28;20200;-56
2023/04/16 04:18:03;;;;;;;3.77;1.63;;;;;;;10.06;64.95;63999.97;5071223;28;20231;-55
2023/04/16 04:20:28;;;;;;;4.03;1.80;;;;;;;10.02;64.96;63996.16;5071179;28;20273;-57
2023/04/16 04:22:54;;;;;;;2.67;1.53;;;;;;;9.93;65.55;63986.31;5071334;28;20645;-57
2023/04/16 04:25:19;;;;;;;3.20;1.80;;;;;;;9.97;65.66;63990.16;5071148;28;20253;-57
2023/04/16 04:27:45;;;;;;;4.10;1.70;;;;;;;9.94;65.94;63981.81;5071013;28;20200;-57
2023/04/16 04:30:11;;;;;;;3.13;1.73;;;;;;;10.04;65.45;63995.84;5070945;28;20208;-56
2023/04/16 04:32:36;;;;;;;3.57;1.57;;;;;;;9.94;66.40;63984.88;5053266;28;20265;-56
2023/04/16 04:35:02;;;;;;;2.83;1.37;;;;;;;9.93;65.90;63983.81;5070937;28;20710;-56
2023/04/16 04:37:28;;;;;;;5.23;1.80;;;;;;;10.03;66.34;63994.75;5071097;28;20189;-56
2023/04/16 04:39:54;;;;;;;3.13;1.37;;;;;;;10.05;66.36;63996.94;5070799;28;20209;-56
2023/04/16 04:42:20;;;;;;;25.83;3.10;;;;;;;10.06;67.04;63995.50;5070866;28;20299;-58
2023/04/16 04:44:46;;;;;;;2.47;1.47;;;;;;;10.39;66.47;64033.59;5070729;28;20227;-57
2023/04/16 04:47:11;;;;;;;3.33;1.60;;;;;;;10.54;66.44;64052.56;5070860;28;20710;-56
2023/04/16 04:49:37;;;;;;;2.37;1.40;;;;;;;10.73;65.97;64073.34;5070671;28;20220;-57
2023/04/16 04:52:02;;;;;;;3.13;1.90;;;;;;;11.04;65.70;64103.66;5070694;28;20563;-59
2023/04/16 04:54:30;;;;;;;4.27;2.03;;;;;;;11.12;65.31;64109.91;5070473;28;20215;-59
2023/04/16 04:56:55;;;;;;;3.20;1.77;;;;;;;11.11;66.04;64109.34;5070620;28;20200;-57
2023/04/16 04:59:22;;;;;;;2.47;1.80;;;;;;;11.22;65.84;64126.44;5051660;28;20212;-57
2023/04/16 05:01:48;;;;;;;5.13;1.90;;;;;;;11.29;66.18;64134.09;5070648;28;20191;-57
2023/04/16 05:04:14;;;;;;;6.13;2.30;;;;;;;11.38;65.53;64140.91;5070830;28;20236;-65
2023/04/16 05:06:40;;;;;;;2.70;1.87;;;;;;;11.16;64.40;64117.34;5070466;28;20239;-57
2023/04/16 05:09:10;;;;;;;5.43;2.13;;;;;;;11.04;65.39;64106.19;5070126;28;20329;-57
2023/04/16 05:11:35;;;;;;;2.77;2.27;;;;;;;10.93;64.85;64094.69;5070608;28;20189;-57
2023/04/16 05:14:01;;;;;;;6.83;2.70;;;;;;;10.99;65.42;64098.72;5070297;28;20216;-57
2023/04/16 05:16:26;;;;;;;5.00;2.27;;;;;;;10.93;65.61;64092.16;5052745;28;20587;-57
2023/04/16 05:18:52;;;;;;;3.80;2.20;;;;;;;10.76;65.73;64071.03;5070310;28;20628;-58
2023/04/16 05:21:17;;;;;;;3.77;2.03;;;;;;;10.57;67.04;64052.75;5070382;28;20705;-57
2023/04/16 05:23:42;;;;;;;3.80;2.27;;;;;;;10.75;66.96;64072.47;5070485;28;20216;-56
2023/04/16 05:26:08;;;;;;;2.83;2.10;;;;;;;10.86;66.13;64087.59;5070163;28;20192;-57
2023/04/16 05:28:33;;;;;;;4.50;1.93;;;;;;;10.85;66.20;64083.41;5070352;28;20720;-57
2023/04/16 05:30:59;;;;;;;3.47;2.23;;;;;;;10.92;66.22;64088.56;5070227;28;20208;-58
2023/04/16 05:33:24;;;;;;;3.67;2.10;;;;;;;11.01;66.54;64102.91;5052183;28;20641;-58
2023/04/16 05:35:50;;;;;;;4.37;2.57;;;;;;;11.20;67.08;64124.25;5070224;28;20185;-57
2023/04/16 05:38:15;;;;;;;5.73;2.63;;;;;;;11.36;65.56;64141.78;5070150;28;20220;-57
2023/04/16 05:40:41;;;;;;;2.60;2.30;;;;;;;11.26;65.60;64128.31;5070218;28;20193;-57
2023/04/16 05:43:07;;;;;;;5.37;2.63;;;;;;;11.25;66.09;64129.19;5070182;28;20212;-57
2023/04/16 05:45:38;;;;;;;4.03;2.20;;;;;;;11.15;66.08;64115.72;5070027;28;20189;-57
2023/04/16 05:48:04;;;;;;;7.13;2.73;;;;;;;11.31;66.06;64135.75;5070192;28;20212;-58
2023/04/16 05:50:30;;;;;;;4.10;2.30;;;;;;;11.61;65.41;64169.19;5069849;28;20226;-58
2023/04/16 05:52:55;;;;;;;4.23;2.70;;;;;;;11.75;64.36;64184.53;5069959;28;20217;-59
2023/04/16 05:55:20;;;;;;;2.93;2.30;;;;;;;11.74;63.90;64180.91;5069879;28;20193;-57
2023/04/16 05:57:46;;;;;;;7.30;2.40;;;;;;;11.84;65.18;64193.31;5069756;28;20189;-56
2023/04/16 06:00:12;;;;;;;6.43;2.77;;;;;;;11.82;64.65;64189.69;5069683;28;20185;-57
2023/04/16 06:02:38;;;;;;;5.87;2.30;;;;;;;11.91;64.63;64199.00;5051623;28;20204;-58
2023/04/16 06:05:04;;;;;;;4.90;2.40;;;;;;;12.08;64.74;64219.63;5069734;28;20570;-58
2023/04/16 06:07:29;;;;;;;4.23;2.10;;;;;;;12.10;63.77;64219.28;5051673;28;20188;-60
2023/04/16 06:09:55;;;;;;;3.23;2.20;;;;;;;12.19;63.68;64231.66;5069470;28;20228;-60
2023/04/16 06:12:20;;;;;;;5.90;3.77;;;;;;;12.89;66.22;64308.44;5073010;28;20195;-62
2023/04/16 06:14:45;;;;;;;8.00;4.03;;;;;;;12.81;62.15;64294.59;5073183;28;20212;-61
2023/04/16 06:17:11;;;;;;;9.03;4.50;;;;;;;12.75;62.00;64290.56;5073002;28;20197;-61
2023/04/16 06:19:36;;;;;;;6.30;4.80;;;;;;;12.68;62.49;64285.41;5055073;28;20232;-60
2023/04/16 06:22:03;;;;;;;9.70;5.10;;;;;;;12.53;61.45;64264.44;5073131;28;20188;-61
2023/04/16 06:24:28;;;;;;;7.30;4.80;;;;;;;12.42;62.29;64254.38;5072856;28;20263;-61
2023/04/16 06:26:54;;;;;;;10.50;5.53;;;;;;;12.39;62.75;64251.06;5072874;28;20686;-60
2023/04/16 06:29:20;;;;;;;7.73;4.70;;;;;;;12.47;63.82;64262.38;5073185;28;20725;-61
2023/04/16 06:31:45;;;;;;;9.87;5.73;;;;;;;12.52;63.05;64267.88;5072754;28;20173;-59
2023/04/16 06:34:10;;;;;;;10.20;5.77;;;;;;;12.66;63.12;64283.75;5054940;28;20220;-57
2023/04/16 06:36:36;;;;;;;10.43;5.40;;;;;;;12.73;62.16;64290.34;5072687;28;20203;-57
2023/04/16 06:39:02;;;;;;;9.20;5.73;;;;;;;12.74;63.53;64286.94;5072574;28;20221;-58
2023/04/16 06:41:27;;;;;;;10.77;5.37;;;;;;;12.50;63.52;64263.16;5072757;28;20666;-58
2023/04/16 06:43:53;;;;;;;9.03;5.20;;;;;;;12.58;63.19;64271.91;5072549;28;20592;-59
2023/04/16 06:46:18;;;;;;;6.90;4.77;;;;;;;12.56;63.34;64272.25;5072666;28;20193;-57
2023/04/16 06:48:44;;;;;;;7.73;5.03;;;;;;;12.82;62.04;64300.78;5072475;28;20281;-57
2023/04/16 06:51:10;;;;;;;7.17;4.43;;;;;;;12.99;61.14;64318.88;5072613;28;20181;-60
2023/04/16 06:53:36;;;;;;;9.30;4.33;;;;;;;12.88;61.44;64304.81;5072721;28;20216;-61
2023/04/16 06:56:01;;;;;;;10.33;4.53;;;;;;;13.06;61.33;64324.03;5072427;28;20188;-59
2023/04/16 06:58:27;;;;;;;6.40;4.30;;;;;;;13.24;60.65;64346.88;5072755;28;20211;-57
2023/04/16 07:00:52;;;;;;;8.73;4.40;;;;;;;13.32;60.74;64355.66;5072356;28;20650;-62
2023/04/16 07:03:18;;;;;;;7.53;4.27;;;;;;;13.28;60.36;64348.75;5072555;28;20281;-61
2023/04/16 07:05:43;;;;;;;8.20;4.40;;;;;;;13.69;60.56;64390.13;5072379;28;20607;-60
2023/04/16 07:08:09;;;;;;;7.20;3.77;;;;;;;13.16;60.00;64335.56;5072196;28;20686;-58
2023/04/16 07:10:34;;;;;;;5.25;3.40;;;;;;;13.30;59.92;64348.41;5072551;28;20219;-58
2023/04/16 07:13:00;;;;;;;4.63;3.57;;;;;;;13.43;59.88;64362.13;5072152;28;20212;-58
2023/04/16 07:15:26;;;;;;;4.65;3.72;;;;;;;13.66;59.69;64389.91;5072317;28;20646;-59
2023/04/16 07:17:52;;;;;;;5.38;3.53;;;;;;;13.65;61.17;64388.25;5072173;28;20212;-60
2023/04/16 07:20:17;;;;;;;7.75;3.47;;;;;;;13.62;61.86;64382.97;5072091;28;20267;-62
2023/04/16 07:22:43;;;;;;;7.23;3.83;;;;;;;13.46;60.21;64368.50;5070801;28;20288;-59
2023/04/16 07:25:08;;;;;;;8.20;3.50;;;;;;;13.07;60.15;64325.69;5071409;28;20703;-61
2023/04/16 07:27:34;;;;;;;7.43;3.77;;;;;;;13.26;60.14;64344.00;5071602;28;20622;-60
2023/04/16 07:29:59;;;;;;;7.55;3.92;;;;;;;13.51;60.73;64373.44;5070934;28;20690;-60
2023/04/16 07:32:25;;;;;;;7.27;3.27;;;;;;;13.48;60.53;64368.16;5071687;28;20204;-58
2023/04/16 07:34:50;;;;;;;6.53;3.20;;;;;;;13.63;60.76;64386.59;5071694;28;20264;-60
2023/04/16 07:37:16;;;;;;;6.40;3.45;;;;;;;13.83;60.54;64408.56;5071858;28;20230;-59
2023/04/16 07:39:41;;;;;;;4.63;3.17;;;;;;;14.14;59.37;64442.06;5071855;28;20774;-61
2023/04/16 07:42:07;;;;;;;5.70;3.13;;;;;;;14.28;59.18;64454.94;5071791;28;20238;-58
2023/04/16 07:44:32;;;;;;;5.97;2.90;;;;;;;14.37;57.19;64467.34;5071583;28;20297;-58
2023/04/16 07:46:57;;;;;;;3.55;2.53;;;;;;;14.51;59.49;64482.19;5071732;28;20272;-59
2023/04/16 07:49:23;;;;;;;5.30;2.40;;;;;;;14.02;59.48;64428.88;5071647;28;20228;-58
2023/04/16 07:51:49;;;;;;;8.57;3.20;;;;;;;14.21;58.51;64450.31;5071614;28;20284;-59
2023/04/16 07:54:14;;;;;;;11.00;6.23;;;;;;;14.10;59.60;64435.13;5071205;28;20223;-59
2023/04/16 07:56:40;;;;;;;4.03;2.20;;;;;;;14.35;58.84;64462.63;5051807;28;20609;-60
2023/04/16 07:59:05;;;;;;;3.00;1.90;;;;;;;14.67;59.07;64500.31;5071122;28;20227;-59
2023/04/16 08:01:31;;;;;;;3.78;2.30;;;;;;;14.70;58.28;64503.63;5053031;28;20188;-58
2023/04/16 08:03:57;;;;;;;4.77;3.27;;;;;;;14.55;59.03;64486.56;5071084;28;20224;-60
2023/04/16 08:06:22;;;;;;;5.32;2.47;;;;;;;14.71;59.32;64504.72;5071229;28;20187;-60
2023/04/16 08:08:48;;;;;;;7.05;2.80;;;;;;;14.97;60.55;64533.28;5071387;28;20219;-60
2023/04/16 08:11:14;;;;;;;6.53;3.53;;;;;;;15.31;61.29;64569.59;5071414;28;20625;-60
2023/04/16 08:13:40;;;;;;;7.30;3.72;;;;;;;15.46;60.84;64588.63;5069623;28;20364;-60
2023/04/16 08:16:05;;;;;;;5.70;3.00;;;;;;;15.82;58.74;64623.16;5069042;28;20235;-59
2023/04/16 08:18:31;;;;;;;8.93;4.72;;;;;;;16.62;67.09;64713.75;5068699;28;20726;-59
2023/04/16 08:20:56;;;;;;;4.78;2.20;;;;;;;16.47;56.02;64694.13;5068749;28;20208;-59
2023/04/16 08:23:22;;;;;;;5.38;2.05;;;;;;;16.47;53.85;64691.59;5069062;28;20258;-58
2023/04/16 08:25:48;;;;;;;6.05;2.33;;;;;;;16.37;55.26;64683.69;5068948;28;20267;-60
2023/04/16 08:28:13;;;;;;;4.43;2.22;;;;;;;16.10;56.68;64656.50;5069151;28;20346;-61
2023/04/16 08:30:38;;;;;;;3.03;2.05;;;;;;;16.32;55.59;64680.19;5069858;28;20221;-60
2023/04/16 08:33:04;;;;;;;5.82;2.35;;;;;;;16.44;54.37;64690.84;5070665;28;20738;-60
2023/04/16 08:35:30;;;;;;;2.40;1.70;;;;;;;16.23;53.13;64668.28;5071098;28;20181;-62
2023/04/16 08:37:56;;;;;;;6.93;1.85;;;;;;;16.16;52.09;64660.56;5071084;28;20214;-59
2023/04/16 08:40:25;;;;;;;4.20;2.30;;;;;;;16.41;52.62;64687.53;5070857;28;20217;-60
2023/04/16 08:42:57;;;;;;;3.38;2.25;;;;;;;16.73;51.57;64722.78;5070947;28;20268;-59
2023/04/16 08:45:26;;;;;;;4.57;2.60;;;;;;;16.76;53.56;64728.66;5070914;28;20189;-60
2023/04/16 08:47:52;;;;;;;3.78;2.15;;;;;;;16.89;52.39;64737.31;5070771;28;20196;-61
2023/04/16 08:50:22;;;;;;;4.68;2.55;;;;;;;17.16;53.04;64770.16;5070789;28;20212;-61
2023/04/16 08:53:21;;;;;;;4.35;2.67;;;;;;;17.33;53.54;64788.34;5070823;28;20193;-60
2023/04/16 08:55:49;;;;;;;5.72;2.45;;;;;;;17.41;52.53;64799.69;5051852;28;20193;-61
2023/04/16 08:58:19;;;;;;;4.68;2.28;;;;;;;17.28;53.04;64785.91;5052530;28;20213;-62
2023/04/16 09:00:45;;;;;;;5.13;2.72;;;;;;;17.30;52.40;64785.03;5070564;28;20211;-61
2023/04/16 09:03:11;;;;;;;3.58;1.98;;;;;;;17.05;50.88;64758.03;5070694;28;20212;-61
2023/04/16 09:05:38;;;;;;;5.20;2.05;;;;;;;16.73;50.33;64722.78;5070684;28;20272;-61
2023/04/16 09:08:05;;;;;;;4.82;2.22;;;;;;;16.63;51.47;64712.34;5070646;28;20212;-61
2023/04/16 09:10:31;;;;;;;5.00;2.17;;;;;;;16.90;51.20;64740.97;5070773;28;20292;-62
2023/04/16 09:12:57;;;;;;;7.55;2.40;;;;;;;17.17;51.36;64770.72;5070223;28;20235;-60
2023/04/16 09:15:26;;;;;;;6.05;2.72;;;;;;;17.60;49.06;64818.66;5070307;28;20728;-60
2023/04/16 09:17:52;;;;;;;4.75;2.20;;;;;;;17.92;47.56;64852.81;5070519;28;20278;-59
2023/04/16 09:20:19;;;;;;;3.53;2.13;;;;;;;18.12;49.27;64877.97;5070473;28;20192;-60
2023/04/16 09:22:45;;;;;;;6.28;2.75;;;;;;;18.05;47.22;64867.72;5070148;28;20585;-60
2023/04/16 09:25:11;;;;;;;5.43;2.42;;;;;;;17.81;47.18;64841.25;5069703;28;20188;-60
2023/04/16 09:27:38;;;;;;;6.05;1.92;;;;;;;18.22;49.93;64885.91;5069579;28;20188;-60
2023/04/16 09:30:24;;;;;;;7.18;2.35;;;;;;;18.77;49.68;64946.59;5051956;28;20262;-60
2023/04/16 09:32:51;;;;;;;2.80;1.85;;;;;;;19.12;48.30;64984.66;5052285;28;20196;-59
2023/04/16 09:35:18;;;;;;;6.95;2.97;;;;;;;18.55;48.29;64922.31;5070244;28;20238;-59
2023/04/16 09:37:54;;;;;;;5.10;2.25;;;;;;;18.83;47.07;64955.19;5071513;28;20256;-61
2023/04/16 09:40:25;;;;;;;4.95;2.20;;;;;;;18.81;47.02;64950.44;5069744;28;20200;-61
2023/04/16 09:42:51;;;;;;;3.10;2.05;;;;;;;18.80;48.53;64949.34;5070511;28;20192;-59
2023/04/16 09:45:16;;;;;;;4.10;1.88;;;;;;;19.04;46.48;64975.84;5070181;28;20185;-59
2023/04/16 09:47:43;;;;;;;6.95;2.85;;;;;;;18.91;46.98;64961.47;5055543;28;20556;-59
2023/04/16 09:50:13;;;;;;;4.93;2.50;;;;;;;18.70;45.87;64935.75;5073477;28;20287;-61
2023/04/16 09:52:39;;;;;;;5.32;3.17;;;;;;;19.02;47.14;64974.19;5073487;28;20254;-60
2023/04/16 09:55:04;;;;;;;6.68;2.65;;;;;;;19.48;45.51;65023.88;5073503;28;20188;-59
2023/04/16 09:57:30;;;;;;;9.25;2.75;;;;;;;19.46;44.63;65022.22;5073487;28;20293;-59
2023/04/16 10:00:04;;;;;;;13.00;7.45;;;;;;;19.20;45.47;64994.03;5073415;28;20266;-59
2023/04/16 10:02:31;;;;;;;6.10;2.15;;;;;;;19.51;44.02;65027.75;5073573;28;20270;-60
2023/04/16 10:05:00;;;;;;;3.28;2.33;;;;;;;20.02;43.77;65084.06;5073178;28;20294;-61
2023/04/16 10:07:33;;;;;;;3.95;2.70;;;;;;;19.81;43.34;65062.88;5073200;28;20192;-59
2023/04/16 10:09:58;;;;;;;4.53;2.58;;;;;;;18.98;43.23;64972.31;5073105;28;20208;-60
2023/04/16 10:12:24;;;;;;;4.28;2.47;;;;;;;18.45;44.43;64913.84;5073023;28;20184;-65
2023/04/16 10:14:49;;;;;;;5.82;2.58;;;;;;;18.79;44.52;64948.78;5073215;28;20205;-60
2023/04/16 10:17:17;;;;;;;4.03;2.15;;;;;;;19.01;45.23;64973.06;5073058;28;20572;-60
2023/04/16 10:19:43;;;;;;;8.75;3.40;;;;;;;18.88;44.66;64958.19;5073039;28;20244;-60
2023/04/16 10:22:09;;;;;;;6.80;4.00;;;;;;;18.67;44.50;64935.00;5054899;28;20185;-62
2023/04/16 10:24:34;;;;;;;6.85;2.70;;;;;;;18.82;43.38;64951.56;5073006;28;20211;-61
2023/04/16 10:27:00;;;;;;;4.78;2.20;;;;;;;18.75;43.68;64944.38;5073110;28;20318;-59
2023/04/16 10:29:28;;;;;;;4.05;2.90;;;;;;;19.04;44.79;64976.38;5072937;28;20251;-61
2023/04/16 10:31:55;;;;;;;10.65;7.72;;;;;;;18.92;43.61;64960.59;5073012;28;20275;-60
2023/04/16 10:34:22;;;;;;;5.85;2.80;;;;;;;19.16;44.09;64986.53;5072691;28;20208;-59
2023/04/16 10:36:51;;;;;;;3.63;1.98;;;;;;;19.58;41.50;65032.91;5054747;28;20200;-59
2023/04/16 10:39:19;;;;;;;3.35;1.80;;;;;;;20.12;43.09;65094.00;5072543;28;20209;-60
2023/04/16 10:41:45;;;;;;;6.13;3.35;;;;;;;19.86;42.17;65065.81;5072949;28;20250;-62
2023/04/16 10:44:11;;;;;;;3.65;2.20;;;;;;;20.27;43.00;65111.16;5072641;28;20213;-59
2023/04/16 10:46:40;;;;;;;2.92;2.25;;;;;;;20.82;42.04;65171.94;5054802;28;20208;-60
2023/04/16 10:49:34;;;;;;;2.38;2.03;;;;;;;20.76;39.29;65164.75;5072691;28;20219;-60
2023/04/16 10:52:06;;;;;;;6.30;2.22;;;;;;;20.92;40.98;65182.44;5069483;28;20278;-60
2023/04/16 10:54:35;;;;;;;13.68;8.05;;;;;;;21.18;40.94;65211.19;5072602;28;20213;-60
2023/04/16 10:57:06;;;;;;;5.10;2.47;;;;;;;21.43;39.13;65241.41;5072294;28;20202;-59
2023/04/16 10:59:34;;;;;;;2.17;1.98;;;;;;;21.85;38.03;65281.66;5072284;28;20217;-59
2023/04/16 11:02:05;;;;;;;10.82;5.50;;;;;;;21.45;38.53;65241.03;5072437;28;20736;-59
2023/04/16 11:04:38;;;;;;;2.05;1.65;;;;;;;21.20;38.54;65213.41;5072545;28;20213;-61
2023/04/16 11:07:14;;;;;;;1.88;1.60;;;;;;;21.33;39.66;65224.66;5072743;28;20268;-61
2023/04/16 11:09:55;;;;;;;4.93;2.28;;;;;;;21.07;39.91;65196.47;5054330;28;20235;-61
2023/04/16 11:12:26;;;;;;;10.00;5.40;;;;;;;20.34;40.20;65118.88;5072410;28;20197;-61
2023/04/16 11:15:06;;;;;;;5.57;1.88;;;;;;;19.98;40.84;65079.06;5072317;28;20205;-59
2023/04/16 11:17:43;;;;;;;4.70;2.20;;;;;;;20.22;39.51;65105.06;5072002;28;20196;-60
2023/04/16 11:20:17;;;;;;;4.55;1.77;;;;;;;20.08;40.52;65090.13;5072081;28;20191;-59
2023/04/16 11:22:44;;;;;;;4.75;2.05;;;;;;;19.92;41.82;65072.44;5072374;28;20712;-60
2023/04/16 11:25:10;;;;;;;3.47;1.70;;;;;;;20.22;43.49;65105.06;5071343;28;20193;-60
2023/04/16 11:27:37;;;;;;;5.05;1.85;;;;;;;20.69;40.43;65157.00;5053737;28;20745;-59
2023/04/16 11:30:05;;;;;;;4.38;2.08;;;;;;;20.62;40.19;65149.28;5071728;28;20336;-60